Airfield :
LOGIN :

Register | Disclaimer

   EN    FR    IT 

 










Legend :    VFR   Marginal VFR   IFR   Intensive IFR   Very Intensive IFR
Visi :
Ceiling :
>= 8 km
>= 3000ft
5 to 8 km
1000 to 3000 ft
1500m to 5 km
500 to 1000 ft
800 to 1500m
200 to 500 ft
< 800m
< 200 ft
Symbols :   Thunderstorms  Fog  Heavy snow  Heavy precipitations  Wind > 20 kt
SIGMETs :     Misc.  Thunderstorms  Icing  Turbulence  Mountain Waves  Volcanic Ashes







- Airport Elevation : 184 ft
- IATA code : BRU


EBBR - Bruxelles

CURRENT METAR :
  • 151950Z 16015KT 9999 SCT049 01/M05 Q1013 TEMPO 3000 -SN -FZRA BKN008

EXPIRED METARs :
  • 151920Z 15013G23KT CAVOK 01/M05 Q1013 TEMPO 3500 -SN -FZRA BKN008
  • 151850Z 15013KT CAVOK 00/M05 Q1014 TEMPO 3500 -SN -FZRA BKN008
  • 151820Z 15010KT CAVOK 00/M05 Q1015 BECMG 3500 -SN BKN008
  • 151750Z 15012KT CAVOK 00/M05 Q1015 TEMPO -SN
  • 151720Z 15010KT CAVOK 00/M05 Q1016 TEMPO -SN

TAF TAF EBBR
Valid from the 15 at 18:00 until the 17 at 00:00 UTC


151700Z 1518/1624 14012KT 9999 BKN040
TEMPO 1518/1521 -SN -FZRA
BECMG 1520/1522 3500 -SN BKN008
PROB40
TEMPO 1521/1524 16016G28KT 1200 SN BKN002
PROB30
TEMPO 1600/1602 -FZRA
BECMG 1602/1604 20010KT 6000 NSW
PROB30 1604/1608 0500 FG BKN001
PROB30
TEMPO 1608/1610 4000 SHRA BKN014TCU
BECMG 1612/1614 SCT008 BKN014
TEMPO 1616/1620 BKN006
No reported NOTAMs for that airfield.
3 SIGMETs reported for the Brussels FIR (EBBU) :
 
Severe icing
EBBU SIGMET 07 VALID 151930/152330 EBBR
EBBU BRUSSELS FIR SEV ICE FCST ENTIRE FIR FL060/180 MOV NE 15KT NC=
Severe icing with freezing rain
EBBU SIGMET 05 VALID 151900/152300 EBBR
EBBU BRUSSELS FIR SEV ICE (FZRA) OBS ENTIRE FIR SFC/FL020 MOV NE 15KT NC=
Severe turbulence
EBBU SIGMET 04 VALID 151800/152200 EBBR
EBBU BRUSSELS FIR SEV TURB FCST SW OF LINE N5112 E00257 - N5015 E00441 SFC/FL050 MOV NE 15KT NC=



MET'MAP, your aeronautical weather chart ! - Copyright ORBIFLY December 2007 - Disclaimer

ORBIFLY MET'MAP TEAM :

Programming & Development : Alexandra Zaïnal
Concept & Development : Baudouin d'Aumeries
Co-Development & Prog : Marc-Olivier Méhu
Technical & hardware support : Manuel Goepfert

Contact : metmap@orbifly.com




SOURCES & CREDITS :

   NOAA